Beausejour, Canada
Current Conditions -  °F | °C
As of 7:00 AM on Wednesday 26 Nov 2014 (Local Time) from CYWG Reporting Station
Clear Clear  
Wind Chill: -37°   Ceiling: Unl
Heat Index: -20°   Visibility: 15mi
Dew Point: -26°   Wind: 7mph
Humidity: 76%   Direction: 320°NW
Pressure: 30.42"   Gusts: NA
Location:  50.06°N, 96.51°W
Report Text: CYWG 261300Z 32006KT 15SM SKC M29/M32 A3042 RMK SLP329
Loading
Personal Weather Stations






























Interactive Weather Map New forecast layout! Learn more

10-Day Weather Forecast

Advertisements
Track Severe Weather on mobile